sensor_id;sensor_type;location;lat;lon;timestamp;temperature;humidity
38398;DHT22;24179;52.094;4.408;2023-03-01T00:01:37;-0.50;99.90
38398;DHT22;24179;52.094;4.408;2023-03-01T00:04:41;-0.50;99.90
38398;DHT22;24179;52.094;4.408;2023-03-01T00:07:41;-0.60;99.90
38398;DHT22;24179;52.094;4.408;2023-03-01T00:10:41;-0.60;99.90
38398;DHT22;24179;52.094;4.408;2023-03-01T00:13:42;-0.60;99.90
38398;DHT22;24179;52.094;4.408;2023-03-01T00:16:43;-0.60;99.90
38398;DHT22;24179;52.094;4.408;2023-03-01T00:19:44;-0.60;99.90
38398;DHT22;24179;52.094;4.408;2023-03-01T00:22:44;-0.60;99.90
38398;DHT22;24179;52.094;4.408;2023-03-01T00:25:45;-0.60;99.90
38398;DHT22;24179;52.094;4.408;2023-03-01T00:28:45;-0.50;99.90
38398;DHT22;24179;52.094;4.408;2023-03-01T00:31:46;-0.50;99.90
38398;DHT22;24179;52.094;4.408;2023-03-01T00:34:46;-0.50;99.90
38398;DHT22;24179;52.094;4.408;2023-03-01T00:37:54;-0.60;99.90
38398;DHT22;24179;52.094;4.408;2023-03-01T00:41:02;-0.60;99.90
38398;DHT22;24179;52.094;4.408;2023-03-01T00:44:03;-0.60;99.90
38398;DHT22;24179;52.094;4.408;2023-03-01T00:47:03;-0.60;99.90
38398;DHT22;24179;52.094;4.408;2023-03-01T00:50:04;-0.60;99.90
38398;DHT22;24179;52.094;4.408;2023-03-01T00:53:04;-0.60;99.90
38398;DHT22;24179;52.094;4.408;2023-03-01T00:56:06;-0.70;99.90
38398;DHT22;24179;52.094;4.408;2023-03-01T00:59:06;-0.70;99.90
38398;DHT22;24179;52.094;4.408;2023-03-01T01:02:07;-0.70;99.90
38398;DHT22;24179;52.094;4.408;2023-03-01T01:05:07;-0.70;99.90
38398;DHT22;24179;52.094;4.408;2023-03-01T01:08:08;-0.60;99.90
38398;DHT22;24179;52.094;4.408;2023-03-01T01:11:09;-0.60;99.90
38398;DHT22;24179;52.094;4.408;2023-03-01T01:14:09;-0.60;99.90
38398;DHT22;24179;52.094;4.408;2023-03-01T01:17:10;-0.60;99.90
38398;DHT22;24179;52.094;4.408;2023-03-01T01:20:11;-0.60;99.90
38398;DHT22;24179;52.094;4.408;2023-03-01T01:23:12;-0.60;99.90
38398;DHT22;24179;52.094;4.408;2023-03-01T01:26:14;-0.70;99.90
38398;DHT22;24179;52.094;4.408;2023-03-01T01:29:15;-0.70;99.90
38398;DHT22;24179;52.094;4.408;2023-03-01T01:32:16;-0.70;99.90
38398;DHT22;24179;52.094;4.408;2023-03-01T01:35:19;-0.80;99.90
38398;DHT22;24179;52.094;4.408;2023-03-01T01:38:20;-0.80;99.90
38398;DHT22;24179;52.094;4.408;2023-03-01T01:41:21;-0.90;99.90
38398;DHT22;24179;52.094;4.408;2023-03-01T01:44:23;-0.90;99.90
38398;DHT22;24179;52.094;4.408;2023-03-01T01:47:24;-1.00;99.90
38398;DHT22;24179;52.094;4.408;2023-03-01T01:50:25;-1.00;99.90
38398;DHT22;24179;52.094;4.408;2023-03-01T01:53:25;-1.00;99.90
38398;DHT22;24179;52.094;4.408;2023-03-01T01:56:26;-1.00;99.90
38398;DHT22;24179;52.094;4.408;2023-03-01T01:59:27;-1.00;99.90
38398;DHT22;24179;52.094;4.408;2023-03-01T02:02:28;-1.10;99.90
38398;DHT22;24179;52.094;4.408;2023-03-01T02:05:40;-1.00;99.90
38398;DHT22;24179;52.094;4.408;2023-03-01T02:08:43;-1.00;99.90
38398;DHT22;24179;52.094;4.408;2023-03-01T02:11:44;-1.00;99.90
38398;DHT22;24179;52.094;4.408;2023-03-01T02:14:44;-1.10;99.90
38398;DHT22;24179;52.094;4.408;2023-03-01T02:17:45;-1.20;99.90
38398;DHT22;24179;52.094;4.408;2023-03-01T02:23:55;-1.30;99.90
38398;DHT22;24179;52.094;4.408;2023-03-01T02:26:56;-1.30;99.90
38398;DHT22;24179;52.094;4.408;2023-03-01T02:29:57;-1.40;99.90
38398;DHT22;24179;52.094;4.408;2023-03-01T02:32:58;-1.40;99.90
38398;DHT22;24179;52.094;4.408;2023-03-01T02:36:14;-1.50;99.90
38398;DHT22;24179;52.094;4.408;2023-03-01T02:39:17;-1.50;99.90
38398;DHT22;24179;52.094;4.408;2023-03-01T02:42:22;-1.50;99.90
38398;DHT22;24179;52.094;4.408;2023-03-01T02:45:24;-1.60;99.90
38398;DHT22;24179;52.094;4.408;2023-03-01T02:48:24;-1.60;99.90
38398;DHT22;24179;52.094;4.408;2023-03-01T02:51:27;-1.60;99.90
38398;DHT22;24179;52.094;4.408;2023-03-01T02:54:33;-1.60;99.90
38398;DHT22;24179;52.094;4.408;2023-03-01T02:57:37;-1.70;99.90
38398;DHT22;24179;52.094;4.408;2023-03-01T03:00:39;-1.70;99.90
38398;DHT22;24179;52.094;4.408;2023-03-01T03:03:44;-1.70;99.90
38398;DHT22;24179;52.094;4.408;2023-03-01T03:06:45;-1.70;99.90
38398;DHT22;24179;52.094;4.408;2023-03-01T03:09:45;-1.80;99.90
38398;DHT22;24179;52.094;4.408;2023-03-01T03:12:50;-1.80;99.90
38398;DHT22;24179;52.094;4.408;2023-03-01T03:15:51;-1.80;99.90
38398;DHT22;24179;52.094;4.408;2023-03-01T03:18:52;-1.80;99.90
38398;DHT22;24179;52.094;4.408;2023-03-01T03:21:52;-1.90;99.90
38398;DHT22;24179;52.094;4.408;2023-03-01T03:24:52;-1.90;99.90
38398;DHT22;24179;52.094;4.408;2023-03-01T03:27:54;-1.90;99.90
38398;DHT22;24179;52.094;4.408;2023-03-01T03:30:56;-1.90;99.90
38398;DHT22;24179;52.094;4.408;2023-03-01T03:33:58;-1.90;99.90
38398;DHT22;24179;52.094;4.408;2023-03-01T03:36:59;-1.90;99.90
38398;DHT22;24179;52.094;4.408;2023-03-01T03:40:02;-1.90;99.90
38398;DHT22;24179;52.094;4.408;2023-03-01T03:43:04;-1.90;99.90
38398;DHT22;24179;52.094;4.408;2023-03-01T03:46:05;-2.00;99.90
38398;DHT22;24179;52.094;4.408;2023-03-01T03:49:06;-2.00;99.90
38398;DHT22;24179;52.094;4.408;2023-03-01T03:52:06;-2.00;99.90
38398;DHT22;24179;52.094;4.408;2023-03-01T03:55:13;-2.00;99.90
38398;DHT22;24179;52.094;4.408;2023-03-01T03:58:14;-2.10;99.90
38398;DHT22;24179;52.094;4.408;2023-03-01T04:01:14;-2.00;99.90
38398;DHT22;24179;52.094;4.408;2023-03-01T04:04:14;-2.10;99.90
38398;DHT22;24179;52.094;4.408;2023-03-01T04:07:18;-2.00;99.90
38398;DHT22;24179;52.094;4.408;2023-03-01T04:10:18;-2.00;99.90
38398;DHT22;24179;52.094;4.408;2023-03-01T04:13:20;-2.10;99.90
38398;DHT22;24179;52.094;4.408;2023-03-01T04:16:20;-2.10;99.90
38398;DHT22;24179;52.094;4.408;2023-03-01T04:19:21;-2.10;99.90
38398;DHT22;24179;52.094;4.408;2023-03-01T04:22:21;-2.10;99.90
38398;DHT22;24179;52.094;4.408;2023-03-01T04:25:22;-2.10;99.90
38398;DHT22;24179;52.094;4.408;2023-03-01T04:28:27;-2.10;99.90
38398;DHT22;24179;52.094;4.408;2023-03-01T04:31:27;-2.20;99.90
38398;DHT22;24179;52.094;4.408;2023-03-01T04:34:28;-2.20;99.90
38398;DHT22;24179;52.094;4.408;2023-03-01T04:37:29;-2.20;99.90
38398;DHT22;24179;52.094;4.408;2023-03-01T04:40:29;-2.20;99.90
38398;DHT22;24179;52.094;4.408;2023-03-01T04:43:30;-2.30;99.90
38398;DHT22;24179;52.094;4.408;2023-03-01T04:46:30;-2.30;99.90
38398;DHT22;24179;52.094;4.408;2023-03-01T04:49:31;-2.30;99.90
38398;DHT22;24179;52.094;4.408;2023-03-01T04:52:31;-2.40;99.90
38398;DHT22;24179;52.094;4.408;2023-03-01T04:55:33;-2.40;99.90
38398;DHT22;24179;52.094;4.408;2023-03-01T04:58:33;-2.40;99.90
38398;DHT22;24179;52.094;4.408;2023-03-01T05:01:34;-2.50;99.90
38398;DHT22;24179;52.094;4.408;2023-03-01T05:04:35;-2.40;99.90
38398;DHT22;24179;52.094;4.408;2023-03-01T05:07:36;-2.40;99.90
38398;DHT22;24179;52.094;4.408;2023-03-01T05:10:36;-2.50;99.90
38398;DHT22;24179;52.094;4.408;2023-03-01T05:13:39;-2.40;99.90
38398;DHT22;24179;52.094;4.408;2023-03-01T05:16:39;-2.40;99.90
38398;DHT22;24179;52.094;4.408;2023-03-01T05:19:40;-2.40;99.90
38398;DHT22;24179;52.094;4.408;2023-03-01T05:22:42;-2.40;99.90
38398;DHT22;24179;52.094;4.408;2023-03-01T05:25:46;-2.40;99.90
38398;DHT22;24179;52.094;4.408;2023-03-01T05:28:46;-2.30;99.90
38398;DHT22;24179;52.094;4.408;2023-03-01T05:31:46;-2.40;99.90
38398;DHT22;24179;52.094;4.408;2023-03-01T05:34:47;-2.40;99.90
38398;DHT22;24179;52.094;4.408;2023-03-01T05:37:48;-2.40;99.90
38398;DHT22;24179;52.094;4.408;2023-03-01T05:40:48;-2.40;99.90
38398;DHT22;24179;52.094;4.408;2023-03-01T05:43:52;-2.50;99.90
38398;DHT22;24179;52.094;4.408;2023-03-01T05:46:52;-2.60;99.90
38398;DHT22;24179;52.094;4.408;2023-03-01T05:49:53;-2.60;99.90
38398;DHT22;24179;52.094;4.408;2023-03-01T05:53:00;-2.70;99.90
38398;DHT22;24179;52.094;4.408;2023-03-01T05:56:04;-2.80;99.90
38398;DHT22;24179;52.094;4.408;2023-03-01T05:59:05;-2.80;99.90
38398;DHT22;24179;52.094;4.408;2023-03-01T06:02:05;-2.80;99.90
38398;DHT22;24179;52.094;4.408;2023-03-01T06:05:07;-2.80;99.90
38398;DHT22;24179;52.094;4.408;2023-03-01T06:08:09;-2.80;99.90
38398;DHT22;24179;52.094;4.408;2023-03-01T06:11:09;-2.80;99.90
38398;DHT22;24179;52.094;4.408;2023-03-01T06:14:10;-2.80;99.90
38398;DHT22;24179;52.094;4.408;2023-03-01T06:17:13;-2.80;99.90
38398;DHT22;24179;52.094;4.408;2023-03-01T06:20:14;-2.80;99.90
38398;DHT22;24179;52.094;4.408;2023-03-01T06:23:15;-2.80;99.90
38398;DHT22;24179;52.094;4.408;2023-03-01T06:26:16;-2.80;99.90
38398;DHT22;24179;52.094;4.408;2023-03-01T06:29:16;-2.80;99.90
38398;DHT22;24179;52.094;4.408;2023-03-01T06:32:17;-2.80;99.90
38398;DHT22;24179;52.094;4.408;2023-03-01T06:35:17;-2.80;99.90
38398;DHT22;24179;52.094;4.408;2023-03-01T06:38:18;-2.80;99.90
38398;DHT22;24179;52.094;4.408;2023-03-01T06:41:19;-2.80;99.90
38398;DHT22;24179;52.094;4.408;2023-03-01T06:44:19;-2.70;99.90
38398;DHT22;24179;52.094;4.408;2023-03-01T06:47:20;-2.70;99.90
38398;DHT22;24179;52.094;4.408;2023-03-01T06:50:20;-2.60;99.90
38398;DHT22;24179;52.094;4.408;2023-03-01T06:53:20;-2.60;99.90
38398;DHT22;24179;52.094;4.408;2023-03-01T06:56:21;-2.50;99.90
38398;DHT22;24179;52.094;4.408;2023-03-01T06:59:21;-2.50;99.90
38398;DHT22;24179;52.094;4.408;2023-03-01T07:02:22;-2.50;99.90
38398;DHT22;24179;52.094;4.408;2023-03-01T07:05:23;-2.40;99.90
38398;DHT22;24179;52.094;4.408;2023-03-01T07:08:26;-2.40;99.90
38398;DHT22;24179;52.094;4.408;2023-03-01T07:11:26;-2.30;99.90
38398;DHT22;24179;52.094;4.408;2023-03-01T07:14:27;-2.30;99.90
38398;DHT22;24179;52.094;4.408;2023-03-01T07:17:27;-2.20;99.90
38398;DHT22;24179;52.094;4.408;2023-03-01T07:20:28;-2.10;99.90
38398;DHT22;24179;52.094;4.408;2023-03-01T07:23:29;-2.00;99.90
38398;DHT22;24179;52.094;4.408;2023-03-01T07:26:30;-1.90;99.90
38398;DHT22;24179;52.094;4.408;2023-03-01T07:29:30;-1.70;99.90
38398;DHT22;24179;52.094;4.408;2023-03-01T07:32:31;-1.50;99.90
38398;DHT22;24179;52.094;4.408;2023-03-01T07:35:31;-1.30;99.90
38398;DHT22;24179;52.094;4.408;2023-03-01T07:38:33;-1.10;99.90
38398;DHT22;24179;52.094;4.408;2023-03-01T07:41:34;-0.70;99.90
38398;DHT22;24179;52.094;4.408;2023-03-01T07:44:34;0.30;99.90
38398;DHT22;24179;52.094;4.408;2023-03-01T07:47:35;1.40;99.90
38398;DHT22;24179;52.094;4.408;2023-03-01T07:50:35;2.40;99.90
38398;DHT22;24179;52.094;4.408;2023-03-01T07:53:36;3.30;99.90
38398;DHT22;24179;52.094;4.408;2023-03-01T07:56:36;4.20;99.90
38398;DHT22;24179;52.094;4.408;2023-03-01T07:59:40;4.90;99.90
38398;DHT22;24179;52.094;4.408;2023-03-01T08:02:41;5.60;99.90
38398;DHT22;24179;52.094;4.408;2023-03-01T08:05:42;6.40;99.90
38398;DHT22;24179;52.094;4.408;2023-03-01T08:08:42;7.00;99.90
38398;DHT22;24179;52.094;4.408;2023-03-01T08:11:43;7.40;99.90
38398;DHT22;24179;52.094;4.408;2023-03-01T08:14:43;7.80;99.90
38398;DHT22;24179;52.094;4.408;2023-03-01T08:17:44;8.30;99.90
38398;DHT22;24179;52.094;4.408;2023-03-01T08:20:44;8.10;99.90
38398;DHT22;24179;52.094;4.408;2023-03-01T08:23:45;7.40;99.90
38398;DHT22;24179;52.094;4.408;2023-03-01T08:26:45;7.30;99.90
38398;DHT22;24179;52.094;4.408;2023-03-01T08:29:46;7.30;99.90
38398;DHT22;24179;52.094;4.408;2023-03-01T08:32:46;7.60;99.90
38398;DHT22;24179;52.094;4.408;2023-03-01T08:35:47;7.40;99.90
38398;DHT22;24179;52.094;4.408;2023-03-01T08:38:47;7.20;99.90
38398;DHT22;24179;52.094;4.408;2023-03-01T08:41:48;7.10;99.90
38398;DHT22;24179;52.094;4.408;2023-03-01T08:44:48;7.50;99.90
38398;DHT22;24179;52.094;4.408;2023-03-01T08:47:51;8.20;99.90
38398;DHT22;24179;52.094;4.408;2023-03-01T08:50:52;8.30;99.90
38398;DHT22;24179;52.094;4.408;2023-03-01T08:53:52;8.40;99.90
38398;DHT22;24179;52.094;4.408;2023-03-01T08:56:53;8.60;99.90
38398;DHT22;24179;52.094;4.408;2023-03-01T08:59:53;9.00;99.90
38398;DHT22;24179;52.094;4.408;2023-03-01T09:02:56;8.90;99.90
38398;DHT22;24179;52.094;4.408;2023-03-01T09:05:59;9.10;99.90
38398;DHT22;24179;52.094;4.408;2023-03-01T09:09:00;9.30;99.90
38398;DHT22;24179;52.094;4.408;2023-03-01T09:12:01;9.30;99.90
38398;DHT22;24179;52.094;4.408;2023-03-01T09:15:02;9.40;99.90
38398;DHT22;24179;52.094;4.408;2023-03-01T09:18:03;10.20;99.90
38398;DHT22;24179;52.094;4.408;2023-03-01T09:21:07;10.60;99.90
38398;DHT22;24179;52.094;4.408;2023-03-01T09:24:12;10.60;99.90
38398;DHT22;24179;52.094;4.408;2023-03-01T09:27:13;11.00;99.90
38398;DHT22;24179;52.094;4.408;2023-03-01T09:30:14;11.30;99.90
38398;DHT22;24179;52.094;4.408;2023-03-01T09:33:15;11.50;99.90
38398;DHT22;24179;52.094;4.408;2023-03-01T09:36:17;11.60;99.90
38398;DHT22;24179;52.094;4.408;2023-03-01T09:39:18;11.70;99.90
38398;DHT22;24179;52.094;4.408;2023-03-01T09:42:20;12.10;99.90
38398;DHT22;24179;52.094;4.408;2023-03-01T09:48:37;12.20;99.90
38398;DHT22;24179;52.094;4.408;2023-03-01T09:51:38;12.00;99.90
38398;DHT22;24179;52.094;4.408;2023-03-01T09:54:39;12.60;99.90
38398;DHT22;24179;52.094;4.408;2023-03-01T09:57:47;12.70;99.90
38398;DHT22;24179;52.094;4.408;2023-03-01T10:00:49;13.10;99.90
38398;DHT22;24179;52.094;4.408;2023-03-01T10:10:14;13.20;99.90
38398;DHT22;24179;52.094;4.408;2023-03-01T10:13:21;13.70;99.90
38398;DHT22;24179;52.094;4.408;2023-03-01T10:16:29;13.50;99.90
38398;DHT22;24179;52.094;4.408;2023-03-01T10:19:44;13.50;99.90
38398;DHT22;24179;52.094;4.408;2023-03-01T10:22:44;13.10;99.90
38398;DHT22;24179;52.094;4.408;2023-03-01T10:29:06;12.80;99.90
38398;DHT22;24179;52.094;4.408;2023-03-01T10:32:08;13.20;99.90
38398;DHT22;24179;52.094;4.408;2023-03-01T10:35:23;13.20;99.90
38398;DHT22;24179;52.094;4.408;2023-03-01T10:38:23;13.30;99.90
38398;DHT22;24179;52.094;4.408;2023-03-01T10:41:25;12.70;99.30
38398;DHT22;24179;52.094;4.408;2023-03-01T10:47:38;12.80;99.00
38398;DHT22;24179;52.094;4.408;2023-03-01T10:50:39;12.60;98.60
38398;DHT22;24179;52.094;4.408;2023-03-01T10:53:41;12.30;99.70
38398;DHT22;24179;52.094;4.408;2023-03-01T10:56:46;12.80;98.80
38398;DHT22;24179;52.094;4.408;2023-03-01T10:59:47;13.00;98.70
38398;DHT22;24179;52.094;4.408;2023-03-01T11:06:02;11.90;98.20
38398;DHT22;24179;52.094;4.408;2023-03-01T11:09:13;11.80;98.80
38398;DHT22;24179;52.094;4.408;2023-03-01T11:12:14;12.30;99.80
38398;DHT22;24179;52.094;4.408;2023-03-01T11:15:36;12.80;99.00
38398;DHT22;24179;52.094;4.408;2023-03-01T11:18:36;12.90;98.60
38398;DHT22;24179;52.094;4.408;2023-03-01T11:21:39;13.30;97.00
38398;DHT22;24179;52.094;4.408;2023-03-01T11:24:46;13.40;96.70
38398;DHT22;24179;52.094;4.408;2023-03-01T11:27:47;13.30;97.00
38398;DHT22;24179;52.094;4.408;2023-03-01T11:30:51;13.40;96.30
38398;DHT22;24179;52.094;4.408;2023-03-01T11:33:56;13.60;96.70
38398;DHT22;24179;52.094;4.408;2023-03-01T11:36:59;13.10;95.90
38398;DHT22;24179;52.094;4.408;2023-03-01T11:43:04;13.60;95.90
38398;DHT22;24179;52.094;4.408;2023-03-01T11:56:13;14.20;94.70
38398;DHT22;24179;52.094;4.408;2023-03-01T11:59:27;14.60;94.90
38398;DHT22;24179;52.094;4.408;2023-03-01T12:08:58;14.10;94.20
38398;DHT22;24179;52.094;4.408;2023-03-01T12:21:54;13.90;95.70
38398;DHT22;24179;52.094;4.408;2023-03-01T12:34:30;13.30;91.30
38398;DHT22;24179;52.094;4.408;2023-03-01T12:37:47;13.60;90.50
38398;DHT22;24179;52.094;4.408;2023-03-01T12:43:55;13.80;91.40
38398;DHT22;24179;52.094;4.408;2023-03-01T12:47:07;13.40;91.40
38398;DHT22;24179;52.094;4.408;2023-03-01T12:50:12;13.30;91.60
38398;DHT22;24179;52.094;4.408;2023-03-01T12:53:24;13.40;92.10
38398;DHT22;24179;52.094;4.408;2023-03-01T12:56:29;13.10;91.20
38398;DHT22;24179;52.094;4.408;2023-03-01T13:02:41;13.10;91.80
38398;DHT22;24179;52.094;4.408;2023-03-01T13:11:52;12.40;91.80
38398;DHT22;24179;52.094;4.408;2023-03-01T13:14:53;12.60;92.00
38398;DHT22;24179;52.094;4.408;2023-03-01T13:17:55;12.40;92.00
38398;DHT22;24179;52.094;4.408;2023-03-01T13:20:56;12.50;92.00
38398;DHT22;24179;52.094;4.408;2023-03-01T13:23:58;12.50;92.00
38398;DHT22;24179;52.094;4.408;2023-03-01T13:39:38;12.30;92.40
38398;DHT22;24179;52.094;4.408;2023-03-01T13:42:40;12.30;92.70
38398;DHT22;24179;52.094;4.408;2023-03-01T13:45:42;12.40;92.70
38398;DHT22;24179;52.094;4.408;2023-03-01T13:48:44;12.60;93.40
38398;DHT22;24179;52.094;4.408;2023-03-01T13:51:48;12.60;91.90
38398;DHT22;24179;52.094;4.408;2023-03-01T13:54:50;12.30;92.20
38398;DHT22;24179;52.094;4.408;2023-03-01T13:57:53;12.20;92.00
38398;DHT22;24179;52.094;4.408;2023-03-01T14:01:01;12.40;92.40
38398;DHT22;24179;52.094;4.408;2023-03-01T14:04:03;12.60;92.50
38398;DHT22;24179;52.094;4.408;2023-03-01T14:10:11;12.60;92.20
38398;DHT22;24179;52.094;4.408;2023-03-01T14:19:45;12.30;92.70
38398;DHT22;24179;52.094;4.408;2023-03-01T14:22:47;12.30;92.60
38398;DHT22;24179;52.094;4.408;2023-03-01T14:25:51;12.40;92.40
38398;DHT22;24179;52.094;4.408;2023-03-01T14:28:52;11.90;92.80
38398;DHT22;24179;52.094;4.408;2023-03-01T14:31:53;11.90;92.70
38398;DHT22;24179;52.094;4.408;2023-03-01T14:34:53;11.70;93.00
38398;DHT22;24179;52.094;4.408;2023-03-01T14:37:54;11.70;92.80
38398;DHT22;24179;52.094;4.408;2023-03-01T14:40:56;12.00;92.60
38398;DHT22;24179;52.094;4.408;2023-03-01T14:43:58;11.60;92.80
38398;DHT22;24179;52.094;4.408;2023-03-01T14:47:00;11.00;92.90
38398;DHT22;24179;52.094;4.408;2023-03-01T14:50:05;10.00;93.40
38398;DHT22;24179;52.094;4.408;2023-03-01T14:53:07;9.30;93.80
38398;DHT22;24179;52.094;4.408;2023-03-01T14:56:15;8.80;95.00
38398;DHT22;24179;52.094;4.408;2023-03-01T14:59:21;8.60;95.70
38398;DHT22;24179;52.094;4.408;2023-03-01T15:02:22;8.50;96.00
38398;DHT22;24179;52.094;4.408;2023-03-01T15:05:33;8.30;96.20
38398;DHT22;24179;52.094;4.408;2023-03-01T15:08:34;8.20;96.20
38398;DHT22;24179;52.094;4.408;2023-03-01T15:11:35;8.10;96.60
38398;DHT22;24179;52.094;4.408;2023-03-01T15:14:41;8.00;97.40
38398;DHT22;24179;52.094;4.408;2023-03-01T15:17:42;7.90;96.90
38398;DHT22;24179;52.094;4.408;2023-03-01T15:20:42;7.80;96.90
38398;DHT22;24179;52.094;4.408;2023-03-01T15:23:47;7.70;97.00
38398;DHT22;24179;52.094;4.408;2023-03-01T15:26:58;7.70;96.80
38398;DHT22;24179;52.094;4.408;2023-03-01T15:30:02;7.60;97.40
38398;DHT22;24179;52.094;4.408;2023-03-01T15:33:16;7.50;98.20
38398;DHT22;24179;52.094;4.408;2023-03-01T15:39:42;7.40;98.50
38398;DHT22;24179;52.094;4.408;2023-03-01T15:42:43;7.40;98.50
38398;DHT22;24179;52.094;4.408;2023-03-01T15:45:43;7.30;99.00
38398;DHT22;24179;52.094;4.408;2023-03-01T15:48:56;7.30;99.40
38398;DHT22;24179;52.094;4.408;2023-03-01T15:51:57;7.30;99.30
38398;DHT22;24179;52.094;4.408;2023-03-01T15:55:02;7.20;98.90
38398;DHT22;24179;52.094;4.408;2023-03-01T15:58:04;7.10;99.10
38398;DHT22;24179;52.094;4.408;2023-03-01T16:01:16;7.00;99.10
38398;DHT22;24179;52.094;4.408;2023-03-01T16:04:17;7.00;99.20
38398;DHT22;24179;52.094;4.408;2023-03-01T16:07:21;6.90;99.50
38398;DHT22;24179;52.094;4.408;2023-03-01T16:10:21;6.80;99.90
38398;DHT22;24179;52.094;4.408;2023-03-01T16:13:22;6.80;99.90
38398;DHT22;24179;52.094;4.408;2023-03-01T16:16:22;6.70;99.90
38398;DHT22;24179;52.094;4.408;2023-03-01T16:19:23;6.70;99.90
38398;DHT22;24179;52.094;4.408;2023-03-01T16:22:23;6.60;99.90
38398;DHT22;24179;52.094;4.408;2023-03-01T16:25:25;6.60;99.90
38398;DHT22;24179;52.094;4.408;2023-03-01T16:28:26;6.50;99.90
38398;DHT22;24179;52.094;4.408;2023-03-01T16:31:26;6.40;99.90
38398;DHT22;24179;52.094;4.408;2023-03-01T16:34:27;6.40;99.90
38398;DHT22;24179;52.094;4.408;2023-03-01T16:37:27;6.30;99.90
38398;DHT22;24179;52.094;4.408;2023-03-01T16:40:30;6.20;99.90
38398;DHT22;24179;52.094;4.408;2023-03-01T16:43:30;6.20;99.90
38398;DHT22;24179;52.094;4.408;2023-03-01T16:46:31;6.10;99.90
38398;DHT22;24179;52.094;4.408;2023-03-01T16:49:31;6.00;99.90
38398;DHT22;24179;52.094;4.408;2023-03-01T16:52:33;5.90;99.90
38398;DHT22;24179;52.094;4.408;2023-03-01T16:55:33;5.90;99.90
38398;DHT22;24179;52.094;4.408;2023-03-01T16:58:34;5.80;99.90
38398;DHT22;24179;52.094;4.408;2023-03-01T17:01:35;5.70;99.90
38398;DHT22;24179;52.094;4.408;2023-03-01T17:04:42;5.60;99.90
38398;DHT22;24179;52.094;4.408;2023-03-01T17:07:42;5.50;99.90
38398;DHT22;24179;52.094;4.408;2023-03-01T17:10:43;5.40;99.90
38398;DHT22;24179;52.094;4.408;2023-03-01T17:13:43;5.30;99.90
38398;DHT22;24179;52.094;4.408;2023-03-01T17:16:44;5.30;99.90
38398;DHT22;24179;52.094;4.408;2023-03-01T17:19:45;5.10;99.90
38398;DHT22;24179;52.094;4.408;2023-03-01T17:22:45;5.10;99.90
38398;DHT22;24179;52.094;4.408;2023-03-01T17:25:46;5.00;99.90
38398;DHT22;24179;52.094;4.408;2023-03-01T17:28:47;4.90;99.90
38398;DHT22;24179;52.094;4.408;2023-03-01T17:31:51;4.90;99.90
38398;DHT22;24179;52.094;4.408;2023-03-01T17:34:53;4.70;99.90
38398;DHT22;24179;52.094;4.408;2023-03-01T17:37:54;4.70;99.90
38398;DHT22;24179;52.094;4.408;2023-03-01T17:40:57;4.60;99.90
38398;DHT22;24179;52.094;4.408;2023-03-01T17:43:58;4.50;99.90
38398;DHT22;24179;52.094;4.408;2023-03-01T17:46:59;4.40;99.90
38398;DHT22;24179;52.094;4.408;2023-03-01T17:49:59;4.40;99.90
38398;DHT22;24179;52.094;4.408;2023-03-01T17:53:00;4.30;99.90
38398;DHT22;24179;52.094;4.408;2023-03-01T17:56:02;4.30;99.90
38398;DHT22;24179;52.094;4.408;2023-03-01T17:59:04;4.30;99.90
38398;DHT22;24179;52.094;4.408;2023-03-01T18:02:05;4.20;99.90
38398;DHT22;24179;52.094;4.408;2023-03-01T18:05:06;4.20;99.90
38398;DHT22;24179;52.094;4.408;2023-03-01T18:08:06;4.10;99.90
38398;DHT22;24179;52.094;4.408;2023-03-01T18:11:07;4.10;99.90
38398;DHT22;24179;52.094;4.408;2023-03-01T18:14:08;4.00;99.90
38398;DHT22;24179;52.094;4.408;2023-03-01T18:17:08;4.00;99.90
38398;DHT22;24179;52.094;4.408;2023-03-01T18:20:11;3.90;99.90
38398;DHT22;24179;52.094;4.408;2023-03-01T18:23:12;3.90;99.90
38398;DHT22;24179;52.094;4.408;2023-03-01T18:26:13;3.80;99.90
38398;DHT22;24179;52.094;4.408;2023-03-01T18:29:16;3.70;99.90
38398;DHT22;24179;52.094;4.408;2023-03-01T18:32:17;3.70;99.90
38398;DHT22;24179;52.094;4.408;2023-03-01T18:35:17;3.60;99.90
38398;DHT22;24179;52.094;4.408;2023-03-01T18:38:18;3.50;99.90
38398;DHT22;24179;52.094;4.408;2023-03-01T18:41:21;3.40;99.90
38398;DHT22;24179;52.094;4.408;2023-03-01T18:44:22;3.30;99.90
38398;DHT22;24179;52.094;4.408;2023-03-01T18:47:23;3.30;99.90
38398;DHT22;24179;52.094;4.408;2023-03-01T18:50:23;3.30;99.90
38398;DHT22;24179;52.094;4.408;2023-03-01T18:53:24;3.30;99.90
38398;DHT22;24179;52.094;4.408;2023-03-01T18:56:24;3.30;99.90
38398;DHT22;24179;52.094;4.408;2023-03-01T18:59:26;3.30;99.90
38398;DHT22;24179;52.094;4.408;2023-03-01T19:02:28;3.30;99.90
38398;DHT22;24179;52.094;4.408;2023-03-01T19:05:29;3.20;99.90
38398;DHT22;24179;52.094;4.408;2023-03-01T19:08:29;3.20;99.90
38398;DHT22;24179;52.094;4.408;2023-03-01T19:11:30;3.20;99.90
38398;DHT22;24179;52.094;4.408;2023-03-01T19:14:32;3.20;99.90
38398;DHT22;24179;52.094;4.408;2023-03-01T19:17:33;3.20;99.90
38398;DHT22;24179;52.094;4.408;2023-03-01T19:20:33;3.10;99.90
38398;DHT22;24179;52.094;4.408;2023-03-01T19:23:37;3.00;99.90
38398;DHT22;24179;52.094;4.408;2023-03-01T19:26:38;3.00;99.90
38398;DHT22;24179;52.094;4.408;2023-03-01T19:29:41;2.90;99.90
38398;DHT22;24179;52.094;4.408;2023-03-01T19:32:41;2.90;99.90
38398;DHT22;24179;52.094;4.408;2023-03-01T19:35:41;2.90;99.90
38398;DHT22;24179;52.094;4.408;2023-03-01T19:38:42;2.90;99.90
38398;DHT22;24179;52.094;4.408;2023-03-01T19:41:43;2.80;99.90
38398;DHT22;24179;52.094;4.408;2023-03-01T19:44:43;2.70;99.90
38398;DHT22;24179;52.094;4.408;2023-03-01T19:47:45;2.80;99.90
38398;DHT22;24179;52.094;4.408;2023-03-01T19:50:45;2.80;99.90
38398;DHT22;24179;52.094;4.408;2023-03-01T19:53:46;2.90;99.90
38398;DHT22;24179;52.094;4.408;2023-03-01T19:56:47;2.90;99.90
38398;DHT22;24179;52.094;4.408;2023-03-01T19:59:48;2.90;99.90
38398;DHT22;24179;52.094;4.408;2023-03-01T20:02:48;2.90;99.90
38398;DHT22;24179;52.094;4.408;2023-03-01T20:05:49;2.90;99.90
38398;DHT22;24179;52.094;4.408;2023-03-01T20:08:49;2.90;99.90
38398;DHT22;24179;52.094;4.408;2023-03-01T20:11:50;2.80;99.90
38398;DHT22;24179;52.094;4.408;2023-03-01T20:14:50;2.80;99.90
38398;DHT22;24179;52.094;4.408;2023-03-01T20:17:54;2.70;99.90
38398;DHT22;24179;52.094;4.408;2023-03-01T20:20:54;2.60;99.90
38398;DHT22;24179;52.094;4.408;2023-03-01T20:23:55;2.50;99.90
38398;DHT22;24179;52.094;4.408;2023-03-01T20:26:56;2.50;99.90
38398;DHT22;24179;52.094;4.408;2023-03-01T20:29:56;2.40;99.90
38398;DHT22;24179;52.094;4.408;2023-03-01T20:32:57;2.40;99.90
38398;DHT22;24179;52.094;4.408;2023-03-01T20:35:57;2.40;99.90
38398;DHT22;24179;52.094;4.408;2023-03-01T20:38:58;2.40;99.90
38398;DHT22;24179;52.094;4.408;2023-03-01T20:41:58;2.30;99.90
38398;DHT22;24179;52.094;4.408;2023-03-01T20:44:59;2.40;99.90
38398;DHT22;24179;52.094;4.408;2023-03-01T20:47:59;2.40;99.90
38398;DHT22;24179;52.094;4.408;2023-03-01T20:51:03;2.30;99.90
38398;DHT22;24179;52.094;4.408;2023-03-01T20:54:04;2.30;99.90
38398;DHT22;24179;52.094;4.408;2023-03-01T20:57:05;2.30;99.90